Time;durP1;ratioP1;P1;durP2;ratioP2;P2;SDS_P1;SDS_P2;PMS_P1;PMS_P2;Temp;Humidity;BMP_temperature;BMP_pressure;BME280_temperature;BME280_humidity;BME280_pressure;Samples;Min_cycle;Max_cycle;Signal;HPM_P1;HPM_P2
2023/03/08 00:01:18;;;;;;;;;;;;;;;5.82;nan;99096.94;4999497;28;20137;-88
2023/03/08 00:03:44;;;;;;;;;;;;;;;5.81;nan;99108.41;4991524;28;20413;-88
2023/03/08 00:06:10;;;;;;;;;;;;;;;5.81;nan;99103.16;4992583;28;19918;-88
2023/03/08 00:08:36;;;;;;;;;;;;;;;5.82;nan;99101.38;4993111;28;20290;-87
2023/03/08 00:11:04;;;;;;;;;;;;;;;5.81;nan;99112.84;4992933;28;20264;-88
2023/03/08 00:13:30;;;;;;;;;;;;;;;5.80;nan;99111.19;5011508;28;19948;-87
2023/03/08 00:15:58;;;;;;;;;;;;;;;5.79;nan;99112.97;4994120;28;19917;-87
2023/03/08 00:18:23;;;;;;;;;;;;;;;5.77;nan;99107.09;4993559;28;19932;-89
2023/03/08 00:20:56;;;;;;;;;;;;;;;5.75;nan;99109.03;5008829;28;19913;-88
2023/03/08 00:23:22;;;;;;;;;;;;;;;5.74;nan;99102.97;4990675;28;20108;-88
2023/03/08 00:25:50;;;;;;;;;;;;;;;5.75;nan;99106.41;5012951;28;19921;-87
2023/03/08 00:28:15;;;;;;;;;;;;;;;5.72;nan;99110.19;4996205;28;20011;-88
2023/03/08 00:30:41;;;;;;;;;;;;;;;5.72;nan;99106.72;4997400;28;19917;-88
2023/03/08 00:33:06;;;;;;;;;;;;;;;5.70;nan;99106.06;4998498;28;19920;-87
2023/03/08 00:35:31;;;;;;;;;;;;;;;5.71;nan;99098.03;4997311;28;19979;-87
2023/03/08 00:37:56;;;;;;;;;;;;;;;5.70;nan;99095.56;4994840;28;20130;-88
2023/03/08 00:40:21;;;;;;;;;;;;;;;5.66;nan;99097.69;4994897;28;19972;-87
2023/03/08 00:42:47;;;;;;;;;;;;;;;5.71;nan;99091.97;4996480;28;20378;-88
2023/03/08 00:45:15;;;;;;;;;;;;;;;5.69;nan;99088.66;5001707;28;19917;-87
2023/03/08 00:47:40;;;;;;;;;;;;;;;5.63;nan;99078.81;5002048;28;19913;-87
2023/03/08 00:50:06;;;;;;;;;;;;;;;5.61;nan;99084.22;4992012;28;19925;-87
2023/03/08 00:52:37;;;;;;;;;;;;;;;5.55;nan;99082.19;4996418;28;20269;-87
2023/03/08 00:55:05;;;;;;;;;;;;;;;5.50;nan;99087.91;4991165;28;19967;-88
2023/03/08 00:57:39;;;;;;;;;;;;;;;5.50;nan;99079.22;5003680;28;19945;-89
2023/03/08 01:00:21;;;;;;;;;;;;;;;;;;;;;
2023/03/08 01:03:02;;;;;;;;;;;;;;;;;;;;;
2023/03/08 01:05:30;;;;;;;;;;;;;;;5.36;nan;99080.59;5014196;28;20418;-88
2023/03/08 01:07:56;;;;;;;;;;;;;;;5.34;nan;99069.47;5002656;28;20420;-89
2023/03/08 01:10:24;;;;;;;;;;;;;;;5.27;nan;99073.69;4996280;28;19921;-88
2023/03/08 01:12:53;;;;;;;;;;;;;;;5.21;nan;99071.66;4995209;28;19917;-87
2023/03/08 01:15:18;;;;;;;;;;;;;;;5.13;nan;99069.81;4983312;28;20386;-87
2023/03/08 01:18:06;;;;;;;;;;;;;;;5.07;nan;99067.78;4984779;28;19928;-87
2023/03/08 01:20:32;;;;;;;;;;;;;;;5.03;nan;99071.69;4990013;28;19971;-87
2023/03/08 01:23:02;;;;;;;;;;;;;;;5.02;nan;99072.66;5015145;28;19929;-87
2023/03/08 01:25:38;;;;;;;;;;;;;;;5.03;nan;99069.91;5003033;28;20464;-87
2023/03/08 01:28:06;;;;;;;;;;;;;;;5.01;nan;99073.66;4980676;28;19917;-87
2023/03/08 01:30:41;;;;;;;;;;;;;;;5.01;nan;99074.47;4998313;28;19963;-87
2023/03/08 01:33:13;;;;;;;;;;;;;;;4.99;nan;99063.31;4995742;28;20009;-88
2023/03/08 01:35:48;;;;;;;;;;;;;;;4.98;nan;99058.22;4991942;28;19936;-87
2023/03/08 01:38:14;;;;;;;;;;;;;;;4.94;nan;99055.09;4998583;28;19917;-87
2023/03/08 01:40:39;;;;;;;;;;;;;;;4.93;nan;99055.25;4997664;28;20285;-86
2023/03/08 01:43:31;;;;;;;;;;;;;;;4.94;nan;99046.44;4995262;28;19921;-87
2023/03/08 01:46:15;;;;;;;;;;;;;;;4.90;nan;99044.09;5021514;28;19924;-87
2023/03/08 01:48:59;;;;;;;;;;;;;;;;;;;;;
2023/03/08 01:51:37;;;;;;;;;;;;;;;4.89;nan;99039.84;4998034;28;20004;-87
2023/03/08 01:54:13;;;;;;;;;;;;;;;4.92;nan;99041.31;4987251;28;20127;-87
2023/03/08 01:56:39;;;;;;;;;;;;;;;4.94;nan;99043.81;4999719;28;19944;-88
2023/03/08 01:59:08;;;;;;;;;;;;;;;4.91;nan;99034.47;4992159;28;19918;-86
2023/03/08 02:01:47;;;;;;;;;;;;;;;4.88;nan;99034.75;4990094;28;19923;-87
2023/03/08 02:04:15;;;;;;;;;;;;;;;4.87;nan;99036.53;4982936;28;19968;-86
2023/03/08 02:06:49;;;;;;;;;;;;;;;4.92;nan;99040.50;5006368;28;19981;-86
2023/03/08 02:09:20;;;;;;;;;;;;;;;4.89;nan;99031.16;4993987;28;19929;-86
2023/03/08 02:11:49;;;;;;;;;;;;;;;4.88;nan;99030.31;4996774;28;19922;-89
2023/03/08 02:14:15;;;;;;;;;;;;;;;4.90;nan;99023.13;4992574;28;19918;-88
2023/03/08 02:16:49;;;;;;;;;;;;;;;4.91;nan;99013.50;4994223;28;19914;-87
2023/03/08 02:19:46;;;;;;;;;;;;;;;4.89;nan;99013.66;4996652;28;19917;-88
2023/03/08 02:22:13;;;;;;;;;;;;;;;4.94;nan;99015.00;4995374;28;20023;-87
2023/03/08 02:24:41;;;;;;;;;;;;;;;4.92;nan;99006.47;5001174;28;19933;-88
2023/03/08 02:27:14;;;;;;;;;;;;;;;4.89;nan;98999.72;5009281;28;19913;-87
2023/03/08 02:29:46;;;;;;;;;;;;;;;4.90;nan;99003.97;5014817;28;20517;-87
2023/03/08 02:32:14;;;;;;;;;;;;;;;4.89;nan;98999.72;4993437;28;19913;-87
2023/03/08 02:35:00;;;;;;;;;;;;;;;4.87;nan;98993.81;4994066;28;20368;-87
2023/03/08 02:37:26;;;;;;;;;;;;;;;4.87;nan;98993.81;4997136;28;19917;-87
2023/03/08 02:39:51;;;;;;;;;;;;;;;4.86;nan;98986.91;4987607;28;19917;-87
2023/03/08 02:42:23;;;;;;;;;;;;;;;4.90;nan;98983.84;4986822;28;19964;-87
2023/03/08 02:44:55;;;;;;;;;;;;;;;4.84;nan;98987.09;4993329;28;19926;-89
2023/03/08 02:47:21;;;;;;;;;;;;;;;4.83;nan;98976.75;5021882;28;20370;-87
2023/03/08 02:49:49;;;;;;;;;;;;;;;4.84;nan;98974.00;5009517;28;19996;-87
2023/03/08 02:52:17;;;;;;;;;;;;;;;4.87;nan;98981.53;4998253;28;19921;-88
2023/03/08 02:54:43;;;;;;;;;;;;;;;4.85;nan;98980.88;4987411;28;19917;-87
2023/03/08 02:57:08;;;;;;;;;;;;;;;4.82;nan;98973.31;4992825;28;19918;-87
2023/03/08 02:59:33;;;;;;;;;;;;;;;4.84;nan;98968.75;4995209;28;19963;-87
2023/03/08 03:02:01;;;;;;;;;;;;;;;4.84;nan;98968.75;4995409;28;19968;-87
2023/03/08 03:04:33;;;;;;;;;;;;;;;4.80;nan;98962.19;4983248;28;19921;-87
2023/03/08 03:06:59;;;;;;;;;;;;;;;4.81;nan;98965.63;4987883;28;19921;-87
2023/03/08 03:09:26;;;;;;;;;;;;;;;4.79;nan;98963.16;4992135;28;19924;-87
2023/03/08 03:11:52;;;;;;;;;;;;;;;4.78;nan;98974.59;4992075;28;20359;-86
2023/03/08 03:14:17;;;;;;;;;;;;;;;4.77;nan;98964.28;4992536;28;19945;-86
2023/03/08 03:16:43;;;;;;;;;;;;;;;4.75;nan;98961.00;4992677;28;20425;-87
2023/03/08 03:19:08;;;;;;;;;;;;;;;4.69;nan;98957.19;5009506;28;19928;-87
2023/03/08 03:21:34;;;;;;;;;;;;;;;4.65;nan;98955.88;4983806;28;19928;-87
2023/03/08 03:24:02;;;;;;;;;;;;;;;4.61;nan;98949.28;4993758;28;19985;-87
2023/03/08 03:26:29;;;;;;;;;;;;;;;4.58;nan;98942.56;4983617;28;19919;-87
2023/03/08 03:28:58;;;;;;;;;;;;;;;4.54;nan;98937.78;4994980;28;19917;-87
2023/03/08 03:31:24;;;;;;;;;;;;;;;4.52;nan;98937.91;4991861;28;19963;-90
2023/03/08 03:33:53;;;;;;;;;;;;;;;4.54;nan;98940.41;4988071;28;20017;-87
2023/03/08 03:36:26;;;;;;;;;;;;;;;4.50;nan;98946.91;4989386;28;19929;-87
2023/03/08 03:38:54;;;;;;;;;;;;;;;4.48;nan;98939.19;4989802;28;19924;-86
2023/03/08 03:41:31;;;;;;;;;;;;;;;4.46;nan;98944.59;5009736;28;20003;-87
2023/03/08 03:44:05;;;;;;;;;;;;;;;4.47;nan;98938.38;4987568;28;20383;-87
2023/03/08 03:46:31;;;;;;;;;;;;;;;4.41;nan;98939.00;4990565;28;19917;-87
2023/03/08 03:49:02;;;;;;;;;;;;;;;4.36;nan;98936.00;5012889;28;19924;-88
2023/03/08 03:51:33;;;;;;;;;;;;;;;4.36;nan;98932.53;5006021;28;19925;-88
2023/03/08 03:54:04;;;;;;;;;;;;;;;4.35;nan;98923.88;4995525;28;19917;-90
2023/03/08 03:56:45;;;;;;;;;;;;;;;;;;;;;
2023/03/08 03:59:11;;;;;;;;;;;;;;;4.29;nan;98937.59;5014623;28;20274;-88
2023/03/08 04:04:25;;;;;;;;;;;;;;;4.30;nan;98933.16;4995430;28;19929;-89
2023/03/08 04:06:53;;;;;;;;;;;;;;;4.28;nan;98919.41;5001007;28;19927;-88
2023/03/08 04:09:26;;;;;;;;;;;;;;;4.24;nan;98913.66;4999782;28;19948;-87
2023/03/08 04:12:01;;;;;;;;;;;;;;;4.23;nan;98917.25;4996527;28;19929;-88
2023/03/08 04:14:29;;;;;;;;;;;;;;;4.22;nan;98908.59;4983151;28;19931;-87
2023/03/08 04:17:05;;;;;;;;;;;;;;;;;;;;;
2023/03/08 04:19:39;;;;;;;;;;;;;;;4.21;nan;98908.72;5005237;28;19917;-87
2023/03/08 04:22:09;;;;;;;;;;;;;;;4.22;nan;98907.75;4997576;28;19918;-87
2023/03/08 04:24:44;;;;;;;;;;;;;;;4.18;nan;98903.81;4993003;28;20009;-87
2023/03/08 04:27:22;;;;;;;;;;;;;;;4.21;nan;98911.34;4979604;28;19979;-87
2023/03/08 04:29:48;;;;;;;;;;;;;;;4.19;nan;98908.88;4968138;28;19972;-87
2023/03/08 04:32:13;;;;;;;;;;;;;;;4.17;nan;98897.75;4994008;28;19936;-86
2023/03/08 04:34:51;;;;;;;;;;;;;;;4.18;nan;98902.00;5007110;28;19921;-87
2023/03/08 04:37:20;;;;;;;;;;;;;;;4.19;nan;98900.19;4977735;28;19921;-87
2023/03/08 04:39:50;;;;;;;;;;;;;;;4.19;nan;98897.59;4983379;28;19914;-87
2023/03/08 04:42:31;;;;;;;;;;;;;;;4.19;nan;98892.34;4983686;28;19940;-87
2023/03/08 04:44:56;;;;;;;;;;;;;;;4.17;nan;98882.06;4996374;28;19929;-88
2023/03/08 04:47:24;;;;;;;;;;;;;;;4.18;nan;98883.69;4978003;28;20379;-87
2023/03/08 04:49:52;;;;;;;;;;;;;;;4.20;nan;98878.31;5007112;28;19936;-87
2023/03/08 04:52:20;;;;;;;;;;;;;;;4.20;nan;98878.31;5008445;28;19949;-87
2023/03/08 04:54:48;;;;;;;;;;;;;;;4.19;nan;98872.22;5001077;28;19917;-88
2023/03/08 04:57:15;;;;;;;;;;;;;;;4.18;nan;98865.38;5013309;28;19917;-87
2023/03/08 04:59:51;;;;;;;;;;;;;;;4.19;nan;98871.41;4988710;28;20385;-87
2023/03/08 05:02:19;;;;;;;;;;;;;;;4.19;nan;98858.34;4996400;28;19917;-87
2023/03/08 05:04:44;;;;;;;;;;;;;;;4.18;nan;98856.72;5012168;28;19921;-87
2023/03/08 05:07:10;;;;;;;;;;;;;;;4.15;nan;98863.06;4995399;28;19924;-86
2023/03/08 05:09:35;;;;;;;;;;;;;;;4.15;nan;98859.63;4995144;28;19921;-89
2023/03/08 05:12:06;;;;;;;;;;;;;;;4.15;nan;98857.84;4992059;28;19972;-87
2023/03/08 05:14:46;;;;;;;;;;;;;;;4.16;nan;98853.41;4991654;28;19925;-88
2023/03/08 05:17:18;;;;;;;;;;;;;;;4.14;nan;98852.75;4992899;28;19925;-88
2023/03/08 05:20:13;;;;;;;;;;;;;;;4.18;nan;98851.47;5000901;28;20009;-87
2023/03/08 05:22:46;;;;;;;;;;;;;;;4.20;nan;98849.53;4988071;28;19917;-87
2023/03/08 05:25:11;;;;;;;;;;;;;;;4.21;nan;98859.00;4990262;28;19968;-87
2023/03/08 05:27:39;;;;;;;;;;;;;;;4.18;nan;98865.38;4995209;28;19929;-87
2023/03/08 05:30:08;;;;;;;;;;;;;;;4.18;nan;98873.22;4977511;28;19914;-88
2023/03/08 05:32:33;;;;;;;;;;;;;;;4.20;nan;98867.84;4980010;28;19917;-87
2023/03/08 05:35:01;;;;;;;;;;;;;;;4.18;nan;98869.78;4993744;28;19944;-87
2023/03/08 05:37:29;;;;;;;;;;;;;;;4.16;nan;98867.31;4983359;28;20016;-87
2023/03/08 05:39:54;;;;;;;;;;;;;;;4.17;nan;98865.50;4984328;28;19924;-87
2023/03/08 05:42:19;;;;;;;;;;;;;;;4.16;nan;98859.47;4993482;28;20016;-87
2023/03/08 05:44:47;;;;;;;;;;;;;;;4.17;nan;98850.66;5009916;28;20439;-87
2023/03/08 05:47:12;;;;;;;;;;;;;;;4.18;nan;98843.63;4993160;28;19917;-87
2023/03/08 05:49:38;;;;;;;;;;;;;;;4.15;nan;98843.94;4993116;28;20073;-88
2023/03/08 05:52:07;;;;;;;;;;;;;;;4.15;nan;98833.47;4993351;28;19924;-88
2023/03/08 05:54:32;;;;;;;;;;;;;;;4.14;nan;98827.41;5011753;28;20288;-87
2023/03/08 05:56:57;;;;;;;;;;;;;;;4.15;nan;98834.28;4994128;28;20067;-87
2023/03/08 05:59:23;;;;;;;;;;;;;;;4.18;nan;98823.53;4984840;28;19953;-88
2023/03/08 06:01:52;;;;;;;;;;;;;;;4.21;nan;98804.06;4994684;28;20389;-88
2023/03/08 06:04:17;;;;;;;;;;;;;;;4.21;nan;98809.31;4992394;28;19957;-87
2023/03/08 06:06:42;;;;;;;;;;;;;;;4.25;nan;98806.22;5011520;28;19998;-87
2023/03/08 06:09:10;;;;;;;;;;;;;;;4.22;nan;98811.78;4994287;28;20402;-87
2023/03/08 06:11:38;;;;;;;;;;;;;;;4.25;nan;98803.63;4994007;28;19917;-88
2023/03/08 06:14:04;;;;;;;;;;;;;;;4.29;nan;98798.91;4980957;28;19917;-87
2023/03/08 06:16:29;;;;;;;;;;;;;;;4.32;nan;98798.59;4979696;28;20008;-87
2023/03/08 06:18:55;;;;;;;;;;;;;;;4.34;nan;98787.97;4999916;28;19917;-87
2023/03/08 06:21:25;;;;;;;;;;;;;;;4.39;nan;98793.56;4993488;28;19964;-87
2023/03/08 06:23:56;;;;;;;;;;;;;;;4.40;nan;98777.69;4995875;28;19921;-86
2023/03/08 06:26:24;;;;;;;;;;;;;;;4.45;nan;98779.84;4984894;28;19920;-87
2023/03/08 06:28:57;;;;;;;;;;;;;;;4.44;nan;98776.41;4989021;28;20460;-86
2023/03/08 06:31:24;;;;;;;;;;;;;;;4.48;nan;98782.16;4997492;28;19913;-87
2023/03/08 06:33:52;;;;;;;;;;;;;;;4.48;nan;98771.69;5005720;28;19949;-88
2023/03/08 06:36:25;;;;;;;;;;;;;;;4.50;nan;98764.50;5007156;28;19917;-87
2023/03/08 06:38:53;;;;;;;;;;;;;;;4.49;nan;98755.00;5022211;28;19913;-87
2023/03/08 06:41:19;;;;;;;;;;;;;;;4.52;nan;98761.72;4989243;28;19913;-87
2023/03/08 06:43:45;;;;;;;;;;;;;;;4.52;nan;98766.97;5010662;28;20004;-87
2023/03/08 06:46:17;;;;;;;;;;;;;;;4.55;nan;98771.88;4994410;28;20009;-87
2023/03/08 06:48:42;;;;;;;;;;;;;;;4.56;nan;98771.75;4995602;28;20421;-87
2023/03/08 06:51:14;;;;;;;;;;;;;;;4.56;nan;98763.06;4994152;28;19925;-87
2023/03/08 06:53:39;;;;;;;;;;;;;;;4.56;nan;98763.06;4992084;28;19913;-88
2023/03/08 06:56:06;;;;;;;;;;;;;;;4.57;nan;98749.81;4989735;28;19963;-87
2023/03/08 06:58:31;;;;;;;;;;;;;;;4.63;nan;98746.56;5000524;28;19918;-87
2023/03/08 07:00:58;;;;;;;;;;;;;;;4.63;nan;98740.53;4992868;28;19921;-89
2023/03/08 07:03:24;;;;;;;;;;;;;;;4.63;nan;98735.28;4992531;28;19917;-88
2023/03/08 07:05:50;;;;;;;;;;;;;;;4.70;nan;98736.28;4992563;28;20440;-87
2023/03/08 07:08:16;;;;;;;;;;;;;;;4.68;nan;98720.72;4976362;28;20295;-88
2023/03/08 07:10:41;;;;;;;;;;;;;;;4.72;nan;98725.66;4992955;28;19921;-88
2023/03/08 07:13:06;;;;;;;;;;;;;;;4.72;nan;98720.41;4992345;28;19929;-88
2023/03/08 07:15:31;;;;;;;;;;;;;;;4.73;nan;98722.06;4994157;28;19917;-88
2023/03/08 07:17:57;;;;;;;;;;;;;;;4.71;nan;98714.34;4992979;28;20345;-89
2023/03/08 07:20:23;;;;;;;;;;;;;;;4.75;nan;98704.41;4986773;28;19917;-87
2023/03/08 07:22:48;;;;;;;;;;;;;;;4.75;nan;98720.13;4994977;28;19917;-88
2023/03/08 07:25:15;;;;;;;;;;;;;;;4.66;nan;98712.22;4994417;28;20478;-88
2023/03/08 07:27:40;;;;;;;;;;;;;;;4.55;nan;98716.91;4991411;28;19945;-88
2023/03/08 07:30:08;;;;;;;;;;;;;;;4.48;nan;98708.88;5001450;28;19957;-88
2023/03/08 07:32:34;;;;;;;;;;;;;;;4.31;nan;98699.31;4999155;28;19925;-88
2023/03/08 07:34:59;;;;;;;;;;;;;;;4.12;nan;98709.03;5007346;28;19972;-88
2023/03/08 07:37:24;;;;;;;;;;;;;;;3.97;nan;98705.34;5010242;28;20048;-87
2023/03/08 07:39:50;;;;;;;;;;;;;;;3.89;nan;98694.84;4996858;28;19949;-88
2023/03/08 07:42:15;;;;;;;;;;;;;;;3.72;nan;98686.06;5014746;28;19925;-88
2023/03/08 07:44:40;;;;;;;;;;;;;;;3.61;nan;98674.88;5009536;28;19992;-88
2023/03/08 07:47:06;;;;;;;;;;;;;;;3.46;nan;98679.03;5005237;28;19917;-87
2023/03/08 07:49:31;;;;;;;;;;;;;;;3.42;nan;98677.69;5014132;28;19917;-88
2023/03/08 07:51:57;;;;;;;;;;;;;;;3.32;nan;98672.56;4993015;28;19944;-88
2023/03/08 07:54:22;;;;;;;;;;;;;;;3.25;nan;98668.09;4992854;28;19932;-88
2023/03/08 07:56:50;;;;;;;;;;;;;;;3.12;nan;98666.69;4992379;28;20265;-88
2023/03/08 07:59:15;;;;;;;;;;;;;;;3.04;nan;98664.00;5012691;28;20376;-88
2023/03/08 08:01:40;;;;;;;;;;;;;;;3.00;nan;98649.59;4992614;28;19936;-88
2023/03/08 08:04:07;;;;;;;;;;;;;;;2.97;nan;98655.09;5011510;28;20108;-88
2023/03/08 08:06:33;;;;;;;;;;;;;;;2.95;nan;98659.66;4996415;28;20363;-88
2023/03/08 08:08:59;;;;;;;;;;;;;;;2.86;nan;98650.09;5007361;28;19917;-88
2023/03/08 08:11:24;;;;;;;;;;;;;;;2.80;nan;98648.09;4993899;28;20298;-88
2023/03/08 08:13:49;;;;;;;;;;;;;;;2.76;nan;98650.19;4995719;28;19925;-87
2023/03/08 08:16:15;;;;;;;;;;;;;;;2.67;nan;98631.03;4993405;28;19960;-88
2023/03/08 08:18:41;;;;;;;;;;;;;;;2.63;nan;98614.00;4992480;28;19917;-88
2023/03/08 08:21:09;;;;;;;;;;;;;;;2.57;nan;98619.00;4992479;28;19917;-88
2023/03/08 08:23:34;;;;;;;;;;;;;;;2.50;nan;98610.94;4993773;28;20407;-87
2023/03/08 08:26:03;;;;;;;;;;;;;;;2.48;nan;98595.44;4993529;28;19917;-88
2023/03/08 08:28:28;;;;;;;;;;;;;;;2.44;nan;98588.88;4992112;28;19921;-88
2023/03/08 08:30:57;;;;;;;;;;;;;;;2.46;nan;98583.53;4991569;28;20349;-87
2023/03/08 08:33:22;;;;;;;;;;;;;;;2.48;nan;98586.78;5010018;28;20000;-88
2023/03/08 08:35:48;;;;;;;;;;;;;;;2.52;nan;98575.91;4991866;28;20000;-88
2023/03/08 08:38:13;;;;;;;;;;;;;;;2.51;nan;98568.25;4991614;28;19917;-87
2023/03/08 08:40:38;;;;;;;;;;;;;;;2.53;nan;98563.69;4995114;28;19948;-87
2023/03/08 08:43:03;;;;;;;;;;;;;;;2.48;nan;98571.97;4994812;28;19929;-88
2023/03/08 08:45:28;;;;;;;;;;;;;;;2.51;nan;98553.41;5003283;28;20151;-87
2023/03/08 08:47:54;;;;;;;;;;;;;;;2.54;nan;98555.72;4990756;28;19994;-86
2023/03/08 08:50:19;;;;;;;;;;;;;;;2.54;nan;98547.88;4992736;28;19921;-87
2023/03/08 08:52:44;;;;;;;;;;;;;;;2.60;nan;98538.66;4993933;28;20506;-88
2023/03/08 08:55:09;;;;;;;;;;;;;;;2.71;nan;98527.16;4991829;28;19963;-88
2023/03/08 08:57:34;;;;;;;;;;;;;;;2.79;nan;98529.00;4992713;28;19918;-87
2023/03/08 09:00:00;;;;;;;;;;;;;;;2.82;nan;98513.06;4992006;28;20333;-88
2023/03/08 09:02:25;;;;;;;;;;;;;;;2.87;nan;98495.97;5009642;28;19983;-87
2023/03/08 09:04:50;;;;;;;;;;;;;;;2.96;nan;98489.81;4993756;28;19961;-88
2023/03/08 09:07:15;;;;;;;;;;;;;;;3.05;nan;98490.72;5010042;28;19918;-88
2023/03/08 09:09:41;;;;;;;;;;;;;;;3.17;nan;98486.84;5006871;28;19917;-88
2023/03/08 09:12:06;;;;;;;;;;;;;;;3.29;nan;98491.78;4991132;28;19936;-88
2023/03/08 09:14:32;;;;;;;;;;;;;;;3.33;nan;98480.88;4991672;28;20256;-88
2023/03/08 09:16:57;;;;;;;;;;;;;;;3.46;nan;98487.50;4993751;28;21225;-88
2023/03/08 09:19:23;;;;;;;;;;;;;;;3.49;nan;98492.41;5017674;28;20227;-88
2023/03/08 09:21:48;;;;;;;;;;;;;;;3.47;nan;98482.09;4999091;28;19917;-89
2023/03/08 09:24:13;;;;;;;;;;;;;;;3.44;nan;98471.97;5014305;28;19999;-87
2023/03/08 09:26:38;;;;;;;;;;;;;;;3.46;nan;98464.78;5015180;28;20000;-88
2023/03/08 09:29:04;;;;;;;;;;;;;;;3.46;nan;98456.94;5011346;28;20254;-88
2023/03/08 09:31:29;;;;;;;;;;;;;;;3.43;nan;98454.63;4991297;28;19918;-88
2023/03/08 09:33:55;;;;;;;;;;;;;;;3.39;nan;98453.31;4993287;28;19980;-88
2023/03/08 09:36:20;;;;;;;;;;;;;;;3.34;nan;98458.22;5008678;28;19921;-88
2023/03/08 09:38:46;;;;;;;;;;;;;;;3.33;nan;98443.50;4990535;28;19940;-88
2023/03/08 09:41:17;;;;;;;;;;;;;;;3.40;nan;98444.50;4991013;28;20362;-88
2023/03/08 09:43:53;;;;;;;;;;;;;;;3.50;nan;98445.19;4992513;28;19929;-87
2023/03/08 09:46:22;;;;;;;;;;;;;;;3.66;nan;98431.38;5009037;28;20374;-88
2023/03/08 09:48:48;;;;;;;;;;;;;;;3.79;nan;98425.66;5024500;28;20016;-87
2023/03/08 09:51:16;;;;;;;;;;;;;;;3.90;nan;98427.19;5006441;28;20124;-87
2023/03/08 09:53:46;;;;;;;;;;;;;;;3.97;nan;98430.78;5009035;28;20207;-88
2023/03/08 09:56:11;;;;;;;;;;;;;;;3.96;nan;98423.94;5008346;28;19940;-87
2023/03/08 09:58:44;;;;;;;;;;;;;;;4.02;nan;98424.06;4990345;28;19918;-88
2023/03/08 10:01:19;;;;;;;;;;;;;;;4.02;nan;98421.47;4990443;28;20224;-88
2023/03/08 10:03:44;;;;;;;;;;;;;;;4.06;nan;98414.13;4991913;28;20423;-88
2023/03/08 10:06:18;;;;;;;;;;;;;;;4.07;nan;98409.72;5008629;28;19918;-89
2023/03/08 10:08:58;;;;;;;;;;;;;;;4.12;nan;98386.50;5008019;28;19918;-88
2023/03/08 10:11:30;;;;;;;;;;;;;;;4.22;nan;98387.16;4990519;28;20298;-86
2023/03/08 10:13:58;;;;;;;;;;;;;;;4.29;nan;98384.69;4991752;28;19917;-87
2023/03/08 10:16:25;;;;;;;;;;;;;;;4.36;nan;98378.66;4990046;28;20334;-87
2023/03/08 10:18:55;;;;;;;;;;;;;;;4.35;nan;98370.97;5005804;28;19917;-87
2023/03/08 10:21:21;;;;;;;;;;;;;;;4.38;nan;98370.63;5005773;28;19917;-86
2023/03/08 10:23:51;;;;;;;;;;;;;;;4.41;nan;98360.66;4986843;28;19922;-89
2023/03/08 10:26:17;;;;;;;;;;;;;;;4.54;nan;98380.28;4995677;28;19917;-88
2023/03/08 10:28:43;;;;;;;;;;;;;;;4.59;nan;98367.50;4996491;28;19932;-87
2023/03/08 10:31:17;;;;;;;;;;;;;;;4.67;nan;98357.84;4996585;28;19917;-89
2023/03/08 10:33:42;;;;;;;;;;;;;;;4.61;nan;98365.53;5030960;28;19932;-89
2023/03/08 10:36:15;;;;;;;;;;;;;;;4.65;nan;98353.75;4995779;28;19917;-88
2023/03/08 10:38:41;;;;;;;;;;;;;;;4.70;nan;98358.50;4992571;28;19917;-88
2023/03/08 10:41:11;;;;;;;;;;;;;;;4.75;nan;98359.59;4988760;28;19924;-90
2023/03/08 10:43:48;;;;;;;;;;;;;;;4.80;nan;98346.81;5014404;28;19922;-89
2023/03/08 10:46:16;;;;;;;;;;;;;;;4.80;nan;98341.59;5012025;28;20352;-88
2023/03/08 10:48:41;;;;;;;;;;;;;;;4.86;nan;98353.19;4990046;28;20226;-88
2023/03/08 10:51:14;;;;;;;;;;;;;;;4.86;nan;98343.53;5000025;28;19917;-89
2023/03/08 10:53:50;;;;;;;;;;;;;;;4.92;nan;98336.00;5016972;28;19917;-88
2023/03/08 10:56:21;;;;;;;;;;;;;;;4.93;nan;98342.84;5016535;28;19939;-91
2023/03/08 10:58:47;;;;;;;;;;;;;;;5.03;nan;98340.84;4998416;28;20411;-87
2023/03/08 11:01:22;;;;;;;;;;;;;;;5.07;nan;98331.66;4995543;28;20306;-88
2023/03/08 11:03:57;;;;;;;;;;;;;;;5.10;nan;98328.69;4994551;28;19921;-86
2023/03/08 11:06:23;;;;;;;;;;;;;;;5.18;nan;98327.88;4994568;28;19925;-86
2023/03/08 11:08:53;;;;;;;;;;;;;;;5.20;nan;98329.31;4988084;28;19964;-85
2023/03/08 11:11:18;;;;;;;;;;;;;;;5.26;nan;98323.38;4990255;28;19987;-89
2023/03/08 11:13:47;;;;;;;;;;;;;;;5.27;nan;98319.78;4991140;28;20412;-87
2023/03/08 11:16:20;;;;;;;;;;;;;;;5.32;nan;98319.28;4992870;28;19921;-87
2023/03/08 11:19:08;;;;;;;;;;;;;;;5.38;nan;98307.28;4991084;28;19925;-87
2023/03/08 11:21:33;;;;;;;;;;;;;;;5.37;nan;98306.47;4970306;28;20052;-85
2023/03/08 11:24:28;;;;;;;;;;;;;;;5.38;nan;98309.91;4988483;28;20208;-86
2023/03/08 11:26:53;;;;;;;;;;;;;;;5.42;nan;98303.31;4971358;28;20241;-85
2023/03/08 11:29:19;;;;;;;;;;;;;;;5.46;nan;98313.28;4989616;28;20145;-85
2023/03/08 11:31:59;;;;;;;;;;;;;;;5.51;nan;98310.16;5005056;28;19929;-86
2023/03/08 11:34:43;;;;;;;;;;;;;;;5.46;nan;98302.81;5002228;28;19928;-87
2023/03/08 11:37:24;;;;;;;;;;;;;;;5.53;nan;98313.41;4986276;28;19921;-86
2023/03/08 11:39:57;;;;;;;;;;;;;;;5.51;nan;98295.22;5020690;28;19928;-86
2023/03/08 11:42:46;;;;;;;;;;;;;;;5.50;nan;98303.25;5001728;28;20375;-85
2023/03/08 11:45:18;;;;;;;;;;;;;;;5.56;nan;98296.53;5004656;28;19932;-86
2023/03/08 11:47:52;;;;;;;;;;;;;;;5.55;nan;98290.44;4989520;28;19917;-87
2023/03/08 11:50:30;;;;;;;;;;;;;;;5.58;nan;98294.53;5005066;28;20459;-85
2023/03/08 11:53:04;;;;;;;;;;;;;;;5.57;nan;98293.72;4989003;28;19917;-85
2023/03/08 11:55:47;;;;;;;;;;;;;;;5.61;nan;98291.56;5006243;28;19918;-88
2023/03/08 11:58:17;;;;;;;;;;;;;;;5.60;nan;98287.31;5010701;28;19917;-88
2023/03/08 12:00:45;;;;;;;;;;;;;;;5.59;nan;98283.88;4991971;28;20383;-87
2023/03/08 12:03:17;;;;;;;;;;;;;;;5.69;nan;98273.16;5006091;28;19926;-86
2023/03/08 12:05:47;;;;;;;;;;;;;;;5.73;nan;98283.09;4990086;28;19917;-87
2023/03/08 12:08:12;;;;;;;;;;;;;;;5.81;nan;98282.22;5008628;28;19917;-87
2023/03/08 12:10:43;;;;;;;;;;;;;;;5.88;nan;98271.84;5012639;28;19924;-87
2023/03/08 12:13:27;;;;;;;;;;;;;;;5.95;nan;98276.22;4997124;28;19917;-88
2023/03/08 12:15:54;;;;;;;;;;;;;;;5.97;nan;98278.69;4997925;28;19963;-87
2023/03/08 12:18:34;;;;;;;;;;;;;;;5.96;nan;98271.81;5015111;28;19971;-86
2023/03/08 12:21:08;;;;;;;;;;;;;;;6.05;nan;98275.97;5008961;28;19917;-86
2023/03/08 12:23:45;;;;;;;;;;;;;;;6.18;nan;98272.75;5009714;28;20168;-86
2023/03/08 12:26:18;;;;;;;;;;;;;;;6.22;nan;98270.56;4992098;28;19922;-86
2023/03/08 12:28:50;;;;;;;;;;;;;;;6.33;nan;98272.75;5008215;28;19979;-86
2023/03/08 12:31:27;;;;;;;;;;;;;;;6.40;nan;98278.94;5007761;28;20282;-86
2023/03/08 12:33:53;;;;;;;;;;;;;;;6.49;nan;98269.16;5007870;28;19953;-86
2023/03/08 12:36:21;;;;;;;;;;;;;;;6.50;nan;98273.41;5004703;28;19971;-85
2023/03/08 12:38:48;;;;;;;;;;;;;;;6.47;nan;98263.28;5009267;28;19918;-86
2023/03/08 12:41:21;;;;;;;;;;;;;;;6.46;nan;98256.38;5012084;28;19925;-86
2023/03/08 12:43:57;;;;;;;;;;;;;;;6.57;nan;98267.25;5009748;28;19925;-86
2023/03/08 12:46:22;;;;;;;;;;;;;;;6.65;nan;98261.09;5009457;28;20343;-85
2023/03/08 12:48:49;;;;;;;;;;;;;;;6.74;nan;98267.06;4990154;28;19936;-85
2023/03/08 12:51:19;;;;;;;;;;;;;;;6.79;nan;98262.91;5006997;28;20046;-86
2023/03/08 12:53:56;;;;;;;;;;;;;;;6.85;nan;98252.66;4988771;28;19918;-87
2023/03/08 12:56:24;;;;;;;;;;;;;;;6.94;nan;98248.94;5005823;28;19917;-87
2023/03/08 12:58:57;;;;;;;;;;;;;;;7.09;nan;98251.50;4997844;28;19925;-87
2023/03/08 13:01:22;;;;;;;;;;;;;;;7.22;nan;98247.22;5005798;28;19921;-87
2023/03/08 13:03:47;;;;;;;;;;;;;;;7.35;nan;98246.53;5010937;28;19925;-88
2023/03/08 13:06:14;;;;;;;;;;;;;;;7.41;nan;98250.22;4987008;28;19991;-88
2023/03/08 13:08:42;;;;;;;;;;;;;;;7.46;nan;98253.13;4993425;28;20048;-88
2023/03/08 13:11:10;;;;;;;;;;;;;;;7.54;nan;98245.09;5014786;28;19921;-87
2023/03/08 13:13:56;;;;;;;;;;;;;;;7.57;nan;98254.41;5014094;28;19949;-87
2023/03/08 13:16:35;;;;;;;;;;;;;;;7.62;nan;98260.72;4996860;28;19999;-87
2023/03/08 13:19:05;;;;;;;;;;;;;;;7.65;nan;98256.91;5014107;28;19920;-88
2023/03/08 13:21:34;;;;;;;;;;;;;;;7.72;nan;98263.03;4995277;28;20429;-86
2023/03/08 13:23:59;;;;;;;;;;;;;;;7.80;nan;98244.50;4996009;28;20018;-86
2023/03/08 13:26:34;;;;;;;;;;;;;;;7.79;nan;98247.31;4995154;28;19913;-88
2023/03/08 13:28:59;;;;;;;;;;;;;;;7.82;nan;98250.41;4996419;28;19914;-88
2023/03/08 13:31:28;;;;;;;;;;;;;;;7.89;nan;98255.72;4981578;28;19921;-87
2023/03/08 13:33:55;;;;;;;;;;;;;;;7.87;nan;98247.19;5006151;28;19944;-87
2023/03/08 13:36:21;;;;;;;;;;;;;;;7.87;nan;98248.00;4990557;28;19925;-87
2023/03/08 13:38:57;;;;;;;;;;;;;;;7.87;nan;98245.38;4993498;28;19918;-87